Greenbrae, Nevada
Current Conditions -  °F | °C
As of 12:55 AM on Friday 31 Oct 2014 (Local Time) from KRNO Reporting Station
Broken Clouds Broken Clouds  
Wind Chill: 59°   Ceiling: 20000
Heat Index: 59°   Visibility: 10mi
Dew Point: 29°   Wind: 3mph
Humidity: 32%   Direction: NA
Pressure: 29.94"   Gusts: NA
Location:  39.5386°N, 119.749°W
Report Text: KRNO 310755Z VRB03KT 10SM SCT150 BKN200 15/M02 A2994 RMK AO2 SLP105 T01501017 401940028
Loading
Personal Weather Stations






























Interactive Weather Map
Tropical Storm Tracking
New forecast layout! Learn more

10-Day Weather Forecast

Advertisements
Track Severe Weather on mobile